createdAt,value
2019-01-23T00:00:54.944Z,-1.28
2019-01-23T00:01:55.535Z,-1.29
2019-01-23T00:02:56.122Z,-1.19
2019-01-23T00:03:56.718Z,-1.31
2019-01-23T00:04:57.371Z,-1.32
2019-01-23T00:05:57.960Z,-1.26
2019-01-23T00:06:58.545Z,-1.29
2019-01-23T00:07:59.136Z,-1.24
2019-01-23T00:08:59.724Z,-1.32
2019-01-23T00:10:00.318Z,-1.34
2019-01-23T00:11:00.959Z,-1.39
2019-01-23T00:12:01.549Z,-1.39
2019-01-23T00:13:03.508Z,-1.36
2019-01-23T00:14:03.724Z,-1.42
2019-01-23T00:15:04.315Z,-1.36
2019-01-23T00:16:04.905Z,-1.40
2019-01-23T00:17:05.485Z,-1.34
2019-01-23T00:18:06.083Z,-1.44
2019-01-23T00:19:06.672Z,-1.36
2019-01-23T00:20:07.265Z,-1.36
2019-01-23T00:21:07.866Z,-1.32
2019-01-23T00:22:08.457Z,-1.32
2019-01-23T00:23:09.037Z,-1.34
2019-01-23T00:24:09.633Z,-1.42
2019-01-23T00:25:10.224Z,-1.43
2019-01-23T00:26:10.814Z,-1.40
2019-01-23T00:27:11.406Z,-1.44
2019-01-23T00:28:11.988Z,-1.39
2019-01-23T00:29:12.580Z,-1.39
2019-01-23T00:30:13.173Z,-1.54
2019-01-23T00:31:13.769Z,-1.46
2019-01-23T00:32:14.361Z,-1.46
2019-01-23T00:33:14.951Z,-1.47
2019-01-23T00:34:15.544Z,-1.46
2019-01-23T00:35:16.127Z,-1.47
2019-01-23T00:36:16.720Z,-1.55
2019-01-23T00:37:17.303Z,-1.47
2019-01-23T00:38:17.895Z,-1.43
2019-01-23T00:39:18.489Z,-1.52
2019-01-23T00:40:19.079Z,-1.49
2019-01-23T00:41:19.668Z,-1.55
2019-01-23T00:42:20.261Z,-1.50
2019-01-23T00:43:20.842Z,-1.55
2019-01-23T00:44:21.428Z,-1.55
2019-01-23T00:45:22.019Z,-1.49
2019-01-23T00:46:22.611Z,-1.54
2019-01-23T00:47:23.202Z,-1.52
2019-01-23T00:48:23.794Z,-1.49
2019-01-23T00:49:24.385Z,-1.46
2019-01-23T00:50:24.976Z,-1.47
2019-01-23T00:51:25.612Z,-1.55
2019-01-23T00:52:26.160Z,-1.43
2019-01-23T00:53:26.755Z,-1.54
2019-01-23T00:54:27.336Z,-1.42
2019-01-23T00:55:27.930Z,-1.52
2019-01-23T00:56:28.512Z,-1.40
2019-01-23T00:57:29.101Z,-1.40
2019-01-23T00:58:29.693Z,-1.46
2019-01-23T00:59:30.284Z,-1.43
2019-01-23T01:01:15.090Z,-1.50
2019-01-23T01:02:15.685Z,-1.55
2019-01-23T01:03:16.282Z,-1.46
2019-01-23T01:04:16.862Z,-1.52
2019-01-23T01:05:17.459Z,-1.55
2019-01-23T01:06:18.048Z,-1.44
2019-01-23T01:07:18.642Z,-1.47
2019-01-23T01:08:19.263Z,-1.50
2019-01-23T01:09:19.841Z,-1.50
2019-01-23T01:10:20.419Z,-1.43
2019-01-23T01:11:21.001Z,-1.54
2019-01-23T01:12:21.600Z,-1.55
2019-01-23T01:13:22.184Z,-1.43
2019-01-23T01:14:22.772Z,-1.44
2019-01-23T01:15:23.373Z,-1.44
2019-01-23T01:16:23.956Z,-1.46
2019-01-23T01:17:24.553Z,-1.47
2019-01-23T01:18:25.143Z,-1.43
2019-01-23T01:19:25.737Z,-1.47
2019-01-23T01:20:26.331Z,-1.43
2019-01-23T01:21:26.923Z,-1.47
2019-01-23T01:22:27.512Z,-1.44
2019-01-23T01:23:28.104Z,-1.44
2019-01-23T01:24:28.710Z,-1.44
2019-01-23T01:25:29.279Z,-1.52
2019-01-23T01:26:29.866Z,-1.46
2019-01-23T01:27:30.450Z,-1.50
2019-01-23T01:28:31.040Z,-1.46
2019-01-23T01:29:31.622Z,-1.49
2019-01-23T01:30:32.214Z,-1.40
2019-01-23T01:31:32.802Z,-1.46
2019-01-23T01:32:33.402Z,-1.46
2019-01-23T01:33:34.139Z,-1.46
2019-01-23T01:34:34.562Z,-1.39
2019-01-23T01:35:35.145Z,-1.39
2019-01-23T01:36:35.732Z,-1.46
2019-01-23T01:37:36.322Z,-1.39
2019-01-23T01:38:36.908Z,-1.44
2019-01-23T01:39:37.498Z,-1.42
2019-01-23T01:40:38.092Z,-1.44
2019-01-23T01:41:38.690Z,-1.42
2019-01-23T01:42:39.276Z,-1.43
2019-01-23T01:43:39.869Z,-1.47
2019-01-23T01:44:40.453Z,-1.37
2019-01-23T01:45:41.045Z,-1.39
2019-01-23T01:46:41.638Z,-1.43
2019-01-23T01:47:42.231Z,-1.46
2019-01-23T01:48:42.818Z,-1.40
2019-01-23T01:49:43.421Z,-1.36
2019-01-23T01:50:43.996Z,-1.44
2019-01-23T01:51:44.581Z,-1.49
2019-01-23T01:52:45.172Z,-1.42
2019-01-23T01:53:45.769Z,-1.44
2019-01-23T01:54:46.354Z,-1.40
2019-01-23T01:55:46.944Z,-1.40
2019-01-23T01:56:47.540Z,-1.40
2019-01-23T01:57:48.127Z,-1.32
2019-01-23T01:58:48.712Z,-1.32
2019-01-23T01:59:49.306Z,-1.34
2019-01-23T02:00:49.898Z,-1.34
2019-01-23T02:01:50.485Z,-1.40
2019-01-23T02:02:51.067Z,-1.37
2019-01-23T02:03:51.662Z,-1.37
2019-01-23T02:04:52.256Z,-1.37
2019-01-23T02:05:52.846Z,-1.31
2019-01-23T02:06:53.441Z,-1.31
2019-01-23T02:07:54.030Z,-1.37
2019-01-23T02:08:54.614Z,-1.37
2019-01-23T02:09:55.213Z,-1.31
2019-01-23T02:10:55.803Z,-1.36
2019-01-23T02:11:56.391Z,-1.29
2019-01-23T02:12:56.979Z,-1.31
2019-01-23T02:13:57.573Z,-1.29
2019-01-23T02:14:58.164Z,-1.31
2019-01-23T02:15:58.749Z,-1.32
2019-01-23T02:16:59.339Z,-1.29
2019-01-23T02:17:59.924Z,-1.28
2019-01-23T02:19:00.522Z,-1.28
2019-01-23T02:20:01.115Z,-1.29
2019-01-23T02:21:01.707Z,-1.22
2019-01-23T02:22:02.296Z,-1.31
2019-01-23T02:23:02.889Z,-1.34
2019-01-23T02:24:03.480Z,-1.29
2019-01-23T02:25:04.070Z,-1.32
2019-01-23T02:26:04.662Z,-1.34
2019-01-23T02:27:05.267Z,-1.29
2019-01-23T02:28:05.836Z,-1.36
2019-01-23T02:29:09.583Z,-1.32
2019-01-23T02:30:07.023Z,-1.26
2019-01-23T02:31:07.608Z,-1.29
2019-01-23T02:32:08.204Z,-1.29
2019-01-23T02:33:08.792Z,-1.29
2019-01-23T02:34:09.384Z,-1.25
2019-01-23T02:35:09.993Z,-1.31
2019-01-23T02:36:10.557Z,-1.32
2019-01-23T02:37:11.151Z,-1.25
2019-01-23T02:38:11.743Z,-1.25
2019-01-23T02:39:12.338Z,-1.31
2019-01-23T02:40:12.917Z,-1.32
2019-01-23T02:41:13.508Z,-1.34
2019-01-23T02:42:14.101Z,-1.29
2019-01-23T02:43:14.693Z,-1.31
2019-01-23T02:44:15.274Z,-1.36
2019-01-23T02:45:15.861Z,-1.32
2019-01-23T02:46:16.450Z,-1.43
2019-01-23T02:47:17.043Z,-1.39
2019-01-23T02:48:17.626Z,-1.39
2019-01-23T02:49:18.224Z,-1.40
2019-01-23T02:50:18.806Z,-1.34
2019-01-23T02:51:19.403Z,-1.43
2019-01-23T02:52:19.978Z,-1.34
2019-01-23T02:53:20.571Z,-1.44
2019-01-23T02:54:21.162Z,-1.40
2019-01-23T02:55:21.751Z,-1.42
2019-01-23T02:56:22.337Z,-1.49
2019-01-23T02:57:22.929Z,-1.46
2019-01-23T02:58:23.521Z,-1.47
2019-01-23T02:59:24.111Z,-1.44
2019-01-23T03:00:24.695Z,-1.43
2019-01-23T03:01:25.278Z,-1.43
2019-01-23T03:02:25.870Z,-1.42
2019-01-23T03:03:26.460Z,-1.49
2019-01-23T03:04:27.041Z,-1.49
2019-01-23T03:05:27.639Z,-1.46
2019-01-23T03:06:28.224Z,-1.40
2019-01-23T03:07:28.807Z,-1.46
2019-01-23T03:08:29.397Z,-1.49
2019-01-23T03:09:29.981Z,-1.44
2019-01-23T03:10:30.572Z,-1.46
2019-01-23T03:11:31.171Z,-1.50
2019-01-23T03:12:31.754Z,-1.43
2019-01-23T03:13:32.351Z,-1.50
2019-01-23T03:14:32.951Z,-1.42
2019-01-23T03:15:33.532Z,-1.57
2019-01-23T03:16:34.119Z,-1.46
2019-01-23T03:17:34.699Z,-1.49
2019-01-23T03:18:35.294Z,-1.50
2019-01-23T03:19:35.880Z,-1.43
2019-01-23T03:20:36.464Z,-1.44
2019-01-23T03:21:37.055Z,-1.37
2019-01-23T03:22:37.637Z,-1.40
2019-01-23T03:23:38.229Z,-1.44
2019-01-23T03:24:38.820Z,-1.39
2019-01-23T03:25:39.402Z,-1.42
2019-01-23T03:26:39.984Z,-1.40
2019-01-23T03:27:40.581Z,-1.31
2019-01-23T03:28:41.166Z,-1.37
2019-01-23T03:29:41.757Z,-1.44
2019-01-23T03:30:42.353Z,-1.37
2019-01-23T03:31:42.943Z,-1.40
2019-01-23T03:32:43.542Z,-1.40
2019-01-23T03:33:44.126Z,-1.39
2019-01-23T03:34:44.716Z,-1.36
2019-01-23T03:35:45.307Z,-1.40
2019-01-23T03:36:45.900Z,-1.39
2019-01-23T03:37:46.490Z,-1.31
2019-01-23T03:38:47.079Z,-1.40
2019-01-23T03:39:47.666Z,-1.32
2019-01-23T03:40:48.259Z,-1.43
2019-01-23T03:41:48.853Z,-1.34
2019-01-23T03:42:49.439Z,-1.32
2019-01-23T03:43:50.037Z,-1.32
2019-01-23T03:44:50.618Z,-1.46
2019-01-23T03:45:51.209Z,-1.39
2019-01-23T03:46:51.804Z,-1.31
2019-01-23T03:47:52.418Z,-1.31
2019-01-23T03:48:52.995Z,-1.36
2019-01-23T03:49:53.579Z,-1.39
2019-01-23T03:50:54.175Z,-1.32
2019-01-23T03:51:54.765Z,-1.32
2019-01-23T03:52:55.358Z,-1.36
2019-01-23T03:53:55.943Z,-1.36
2019-01-23T03:54:56.526Z,-1.36
2019-01-23T03:55:57.118Z,-1.40
2019-01-23T03:56:57.706Z,-1.39
2019-01-23T03:57:58.298Z,-1.42
2019-01-23T03:58:58.874Z,-1.40
2019-01-23T03:59:59.458Z,-1.44
2019-01-23T04:01:00.042Z,-1.32
2019-01-23T04:02:00.632Z,-1.44
2019-01-23T04:03:01.226Z,-1.37
2019-01-23T04:04:01.813Z,-1.42
2019-01-23T04:05:02.408Z,-1.37
2019-01-23T04:06:02.999Z,-1.47
2019-01-23T04:07:03.589Z,-1.44
2019-01-23T04:08:04.171Z,-1.44
2019-01-23T04:09:04.764Z,-1.46
2019-01-23T04:10:05.349Z,-1.40
2019-01-23T04:11:05.962Z,-1.44
2019-01-23T04:12:06.531Z,-1.42
2019-01-23T04:13:07.150Z,-1.43
2019-01-23T04:14:07.709Z,-1.42
2019-01-23T04:15:08.295Z,-1.34
2019-01-23T04:16:08.883Z,-1.44
2019-01-23T04:17:09.470Z,-1.36
2019-01-23T04:18:10.076Z,-1.36
2019-01-23T04:19:10.647Z,-1.34
2019-01-23T04:20:11.254Z,-1.34
2019-01-23T04:21:11.821Z,-1.39
2019-01-23T04:22:12.414Z,-1.46
2019-01-23T04:23:13.004Z,-1.44
2019-01-23T04:24:13.598Z,-1.47
2019-01-23T04:25:14.186Z,-1.50
2019-01-23T04:26:14.779Z,-1.42
2019-01-23T04:27:15.371Z,-1.47
2019-01-23T04:28:15.963Z,-1.50
2019-01-23T04:29:16.555Z,-1.55
2019-01-23T04:30:17.151Z,-1.44
2019-01-23T04:31:17.728Z,-1.54
2019-01-23T04:32:18.311Z,-1.52
2019-01-23T04:33:18.904Z,-1.55
2019-01-23T04:34:19.494Z,-1.62
2019-01-23T04:35:20.089Z,-1.58
2019-01-23T04:36:20.689Z,-1.57
2019-01-23T04:37:21.275Z,-1.65
2019-01-23T04:38:21.869Z,-1.61
2019-01-23T04:39:22.481Z,-1.78
2019-01-23T04:40:23.048Z,-1.67
2019-01-23T04:41:23.641Z,-1.72
2019-01-23T04:42:24.240Z,-1.68
2019-01-23T04:43:24.829Z,-1.72
2019-01-23T04:44:25.414Z,-1.62
2019-01-23T04:45:26.006Z,-1.68
2019-01-23T04:46:26.602Z,-1.75
2019-01-23T04:47:27.195Z,-1.61
2019-01-23T04:48:27.779Z,-1.75
2019-01-23T04:49:28.363Z,-1.67
2019-01-23T04:50:28.951Z,-1.68
2019-01-23T04:51:29.529Z,-1.78
2019-01-23T04:52:30.115Z,-1.82
2019-01-23T04:53:30.703Z,-1.83
2019-01-23T04:54:31.286Z,-1.85
2019-01-23T04:55:31.879Z,-1.79
2019-01-23T04:56:32.470Z,-1.78
2019-01-23T04:57:33.053Z,-1.79
2019-01-23T04:58:33.636Z,-1.86
2019-01-23T04:59:34.238Z,-1.81
2019-01-23T05:00:34.819Z,-1.79
2019-01-23T05:01:35.394Z,-1.81
2019-01-23T05:02:35.982Z,-1.82
2019-01-23T05:03:36.567Z,-1.79
2019-01-23T05:04:37.168Z,-1.75
2019-01-23T05:05:37.745Z,-1.86
2019-01-23T05:06:38.334Z,-1.88
2019-01-23T05:07:38.925Z,-1.90
2019-01-23T05:08:39.509Z,-1.96
2019-01-23T05:09:40.098Z,-1.97
2019-01-23T05:10:40.683Z,-1.96
2019-01-23T05:11:41.268Z,-1.97
2019-01-23T05:12:41.856Z,-2.01
2019-01-23T05:13:42.446Z,-1.96
2019-01-23T05:14:43.038Z,-2.07
2019-01-23T05:15:43.631Z,-2.00
2019-01-23T05:16:44.211Z,-2.04
2019-01-23T05:17:44.805Z,-2.06
2019-01-23T05:18:45.387Z,-2.00
2019-01-23T05:19:45.971Z,-2.01
2019-01-23T05:20:46.559Z,-2.09
2019-01-23T05:21:47.151Z,-2.09
2019-01-23T05:22:47.734Z,-2.07
2019-01-23T05:23:48.326Z,-2.18
2019-01-23T05:24:48.950Z,-2.19
2019-01-23T05:25:49.501Z,-2.24
2019-01-23T05:26:50.091Z,-2.33
2019-01-23T05:27:50.685Z,-2.30
2019-01-23T05:28:51.273Z,-2.22
2019-01-23T05:29:55.082Z,-2.18
2019-01-23T05:30:52.457Z,-2.34
2019-01-23T05:31:53.046Z,-2.30
2019-01-23T05:32:53.631Z,-2.34
2019-01-23T05:33:54.216Z,-2.30
2019-01-23T05:34:54.797Z,-2.33
2019-01-23T05:35:55.389Z,-2.36
2019-01-23T05:36:55.982Z,-2.37
2019-01-23T05:37:56.568Z,-2.33
2019-01-23T05:38:57.151Z,-2.25
2019-01-23T05:39:57.734Z,-2.30
2019-01-23T05:40:58.335Z,-2.36
2019-01-23T05:41:58.919Z,-2.41
2019-01-23T05:42:59.527Z,-2.43
2019-01-23T05:44:00.104Z,-2.37
2019-01-23T05:45:00.688Z,-2.38
2019-01-23T05:46:01.285Z,-2.37
2019-01-23T05:47:01.867Z,-2.51
2019-01-23T05:48:02.448Z,-2.46
2019-01-23T05:49:03.030Z,-2.48
2019-01-23T05:50:03.615Z,-2.59
2019-01-23T05:51:04.208Z,-2.59
2019-01-23T05:52:04.822Z,-2.55
2019-01-23T05:53:05.397Z,-2.44
2019-01-23T05:54:05.978Z,-2.44
2019-01-23T05:55:06.567Z,-2.55
2019-01-23T05:56:07.168Z,-2.51
2019-01-23T05:57:07.774Z,-2.49
2019-01-23T05:58:09.257Z,-2.55
2019-01-23T05:59:08.959Z,-2.55
2019-01-23T06:00:09.550Z,-2.48
2019-01-23T06:01:10.143Z,-2.44
2019-01-23T06:02:10.722Z,-2.49
2019-01-23T06:03:11.303Z,-2.44
2019-01-23T06:04:11.887Z,-2.48
2019-01-23T06:05:12.481Z,-2.51
2019-01-23T06:06:13.064Z,-2.46
2019-01-23T06:07:13.654Z,-2.51
2019-01-23T06:08:14.245Z,-2.46
2019-01-23T06:09:14.833Z,-2.54
2019-01-23T06:10:15.419Z,-2.66
2019-01-23T06:11:16.014Z,-2.67
2019-01-23T06:12:16.654Z,-2.58
2019-01-23T06:13:17.243Z,-2.61
2019-01-23T06:14:17.821Z,-2.66
2019-01-23T06:15:18.470Z,-2.58
2019-01-23T06:16:19.058Z,-2.58
2019-01-23T06:17:19.675Z,-2.64
2019-01-23T06:18:20.284Z,-2.59
2019-01-23T06:19:20.856Z,-2.58
2019-01-23T06:20:21.446Z,-2.66
2019-01-23T06:21:22.077Z,-2.58
2019-01-23T06:22:22.655Z,-2.58
2019-01-23T06:23:23.238Z,-2.52
2019-01-23T06:24:23.829Z,-2.57
2019-01-23T06:25:24.419Z,-2.49
2019-01-23T06:26:25.008Z,-2.62
2019-01-23T06:27:25.601Z,-2.55
2019-01-23T06:28:26.192Z,-2.49
2019-01-23T06:29:26.782Z,-2.59
2019-01-23T06:30:27.375Z,-2.59
2019-01-23T06:31:27.967Z,-2.64
2019-01-23T06:32:28.555Z,-2.73
2019-01-23T06:33:29.143Z,-2.62
2019-01-23T06:34:29.724Z,-2.67
2019-01-23T06:35:30.314Z,-2.66
2019-01-23T06:36:30.906Z,-2.72
2019-01-23T06:37:31.500Z,-2.73
2019-01-23T06:38:32.084Z,-2.90
2019-01-23T06:39:32.674Z,-2.90
2019-01-23T06:40:33.276Z,-2.80
2019-01-23T06:41:33.899Z,-2.80
2019-01-23T06:42:34.447Z,-2.94
2019-01-23T06:43:35.039Z,-2.98
2019-01-23T06:44:35.629Z,-3.00
2019-01-23T06:45:36.210Z,-3.05
2019-01-23T06:46:36.801Z,-3.09
2019-01-23T06:47:37.403Z,-3.14
2019-01-23T06:48:37.976Z,-3.32
2019-01-23T06:49:38.565Z,-3.27
2019-01-23T06:50:39.157Z,-3.30
2019-01-23T06:51:39.743Z,-3.30
2019-01-23T06:52:40.337Z,-3.39
2019-01-23T06:53:40.923Z,-3.39
2019-01-23T06:54:41.574Z,-3.39
2019-01-23T06:55:42.143Z,-3.45
2019-01-23T06:56:42.735Z,-3.48
2019-01-23T06:57:43.318Z,-3.42
2019-01-23T06:58:43.902Z,-3.50
2019-01-23T06:59:44.539Z,-3.52
2019-01-23T07:00:45.089Z,-3.52
2019-01-23T07:01:45.681Z,-3.57
2019-01-23T07:02:46.272Z,-3.61
2019-01-23T07:03:46.854Z,-3.58
2019-01-23T07:04:47.479Z,-3.63
2019-01-23T07:05:48.065Z,-3.65
2019-01-23T07:06:48.664Z,-3.71
2019-01-23T07:07:49.258Z,-3.81
2019-01-23T07:08:50.095Z,-3.80
2019-01-23T07:09:50.689Z,-3.77
2019-01-23T07:10:51.288Z,-3.80
2019-01-23T07:11:51.864Z,-3.84
2019-01-23T07:12:52.457Z,-3.82
2019-01-23T07:13:53.050Z,-3.90
2019-01-23T07:14:53.640Z,-3.91
2019-01-23T07:15:54.232Z,-3.84
2019-01-23T07:16:54.874Z,-3.91
2019-01-23T07:17:55.463Z,-3.88
2019-01-23T07:18:56.052Z,-3.95
2019-01-23T07:19:56.636Z,-3.95
2019-01-23T07:20:57.229Z,-3.84
2019-01-23T07:21:57.817Z,-3.84
2019-01-23T07:22:58.406Z,-3.82
2019-01-23T07:23:58.992Z,-3.76
2019-01-23T07:24:59.581Z,-3.82
2019-01-23T07:26:00.174Z,-3.76
2019-01-23T07:27:00.768Z,-3.77
2019-01-23T07:28:01.361Z,-3.87
2019-01-23T07:29:01.954Z,-3.77
2019-01-23T07:30:02.549Z,-3.80
2019-01-23T07:31:03.138Z,-3.82
2019-01-23T07:32:03.732Z,-3.80
2019-01-23T07:33:04.323Z,-3.92
2019-01-23T07:34:04.927Z,-3.87
2019-01-23T07:35:05.513Z,-3.87
2019-01-23T07:36:06.102Z,-3.88
2019-01-23T07:37:06.694Z,-3.81
2019-01-23T07:38:07.290Z,-3.88
2019-01-23T07:39:07.886Z,-3.84
2019-01-23T07:40:08.475Z,-3.85
2019-01-23T07:41:09.064Z,-3.76
2019-01-23T07:42:09.654Z,-3.80
2019-01-23T07:43:10.249Z,-3.80
2019-01-23T07:44:10.852Z,-3.77
2019-01-23T07:45:11.443Z,-3.81
2019-01-23T07:46:12.035Z,-3.66
2019-01-23T07:47:12.633Z,-3.65
2019-01-23T07:48:13.215Z,-3.61
2019-01-23T07:49:13.861Z,-3.54
2019-01-23T07:50:14.456Z,-3.57
2019-01-23T07:51:15.042Z,-3.50
2019-01-23T07:52:15.637Z,-3.42
2019-01-23T07:53:16.221Z,-3.39
2019-01-23T07:54:16.817Z,-3.36
2019-01-23T07:55:17.412Z,-3.33
2019-01-23T07:56:17.998Z,-3.30
2019-01-23T07:57:18.593Z,-3.21
2019-01-23T07:58:19.229Z,-3.16
2019-01-23T07:59:19.874Z,-3.12
2019-01-23T08:00:20.474Z,-3.08
2019-01-23T08:01:21.215Z,-2.95
2019-01-23T08:02:21.811Z,-2.94
2019-01-23T08:03:22.396Z,-2.87
2019-01-23T08:04:22.981Z,-2.83
2019-01-23T08:05:23.590Z,-2.85
2019-01-23T08:06:24.165Z,-2.77
2019-01-23T08:07:24.751Z,-2.76
2019-01-23T08:08:25.348Z,-2.72
2019-01-23T08:09:25.984Z,-2.58
2019-01-23T08:10:26.583Z,-2.59
2019-01-23T08:11:27.181Z,-2.55
2019-01-23T08:12:27.766Z,-2.46
2019-01-23T08:13:28.365Z,-2.46
2019-01-23T08:14:28.955Z,-2.30
2019-01-23T08:15:29.587Z,-2.29
2019-01-23T08:16:30.162Z,-2.29
2019-01-23T08:17:32.989Z,-2.24
2019-01-23T08:18:31.337Z,-2.15
2019-01-23T08:19:31.939Z,-2.15
2019-01-23T08:20:32.530Z,-2.11
2019-01-23T08:21:33.126Z,-2.09
2019-01-23T08:22:33.718Z,-2.03
2019-01-23T08:23:34.307Z,-1.94
2019-01-23T08:24:34.966Z,-1.93
2019-01-23T08:25:35.567Z,-1.86
2019-01-23T08:26:36.162Z,-1.85
2019-01-23T08:27:36.759Z,-1.78
2019-01-23T08:28:37.347Z,-1.67
2019-01-23T08:29:37.940Z,-1.58
2019-01-23T08:30:40.747Z,-1.61
2019-01-23T08:31:39.123Z,-1.52
2019-01-23T08:32:39.723Z,-1.46
2019-01-23T08:33:40.318Z,-1.40
2019-01-23T08:34:40.911Z,-1.47
2019-01-23T08:35:41.519Z,-1.29
2019-01-23T08:36:42.097Z,-1.32
2019-01-23T08:37:42.691Z,-1.29
2019-01-23T08:38:43.281Z,-1.24
2019-01-23T08:39:43.898Z,-1.16
2019-01-23T08:40:44.520Z,-1.18
2019-01-23T08:41:45.102Z,-1.11
2019-01-23T08:42:45.701Z,-1.07
2019-01-23T08:43:46.298Z,-1.11
2019-01-23T08:44:46.911Z,-0.93
2019-01-23T08:45:47.475Z,-0.92
2019-01-23T08:46:48.076Z,-0.79
2019-01-23T08:47:48.666Z,-0.82
2019-01-23T08:48:49.261Z,-0.78
2019-01-23T08:49:49.849Z,-0.85
2019-01-23T08:50:50.433Z,-0.73
2019-01-23T08:51:51.033Z,-0.70
2019-01-23T08:52:51.628Z,-0.71
2019-01-23T08:53:52.220Z,-0.61
2019-01-23T08:54:52.816Z,-0.53
2019-01-23T08:55:53.969Z,-0.61
2019-01-23T08:56:54.006Z,-0.66
2019-01-23T08:57:54.593Z,-0.58
2019-01-23T08:58:55.191Z,-0.46
2019-01-23T08:59:55.786Z,-0.48
2019-01-23T09:00:56.384Z,-0.52
2019-01-23T09:01:56.979Z,-0.42
2019-01-23T09:02:57.575Z,-0.34
2019-01-23T09:03:58.168Z,-0.28
2019-01-23T09:04:58.757Z,-0.35
2019-01-23T09:05:59.352Z,-0.28
2019-01-23T09:06:59.950Z,-0.34
2019-01-23T09:08:00.539Z,-0.25
2019-01-23T09:09:01.139Z,-0.25
2019-01-23T09:10:01.737Z,-0.17
2019-01-23T09:11:02.333Z,-0.27
2019-01-23T09:12:02.917Z,-0.40
2019-01-23T09:13:03.524Z,-0.24
2019-01-23T09:14:04.201Z,-0.37
2019-01-23T09:15:04.801Z,-0.21
2019-01-23T09:16:05.399Z,-0.25
2019-01-23T09:17:05.982Z,-0.25
2019-01-23T09:18:07.173Z,-0.27
2019-01-23T09:19:07.241Z,-0.28
2019-01-23T09:20:07.795Z,-0.21
2019-01-23T09:21:08.389Z,-0.27
2019-01-23T09:22:08.988Z,-0.27
2019-01-23T09:23:09.575Z,-0.28
2019-01-23T09:24:10.177Z,-0.27
2019-01-23T09:25:10.775Z,-0.27
2019-01-23T09:26:55.585Z,-0.34
2019-01-23T09:27:56.187Z,-0.12
2019-01-23T09:28:56.790Z,-0.27
2019-01-23T09:29:57.974Z,-0.22
2019-01-23T09:30:58.993Z,-0.25
2019-01-23T09:31:59.810Z,-0.25
2019-01-23T09:33:00.712Z,-0.17
2019-01-23T09:34:01.644Z,-0.19
2019-01-23T09:35:02.446Z,-0.13
2019-01-23T09:36:03.332Z,-0.16
2019-01-23T09:37:03.965Z,-0.07
2019-01-23T09:38:04.802Z,-0.16
2019-01-23T09:39:05.372Z,-0.07
2019-01-23T09:40:05.973Z,-0.09
2019-01-23T09:41:06.831Z,-0.01
2019-01-23T09:42:07.583Z,-0.03
2019-01-23T09:43:08.224Z,0.06
2019-01-23T09:44:08.847Z,0.08
2019-01-23T09:45:09.675Z,0.15
2019-01-23T09:46:10.363Z,0.22
2019-01-23T09:47:11.313Z,0.12
2019-01-23T09:48:12.106Z,0.12
2019-01-23T09:49:13.157Z,-0.01
2019-01-23T09:50:14.232Z,0.04
2019-01-23T09:51:14.975Z,0.09
2019-01-23T09:52:16.008Z,0.08
2019-01-23T09:53:17.056Z,0.14
2019-01-23T09:54:19.113Z,0.27
2019-01-23T09:55:20.408Z,0.23
2019-01-23T09:56:21.927Z,0.22
2019-01-23T09:57:23.286Z,0.30
2019-01-23T09:58:24.858Z,0.29
2019-01-23T09:59:26.341Z,0.33
2019-01-23T10:00:27.408Z,0.47
2019-01-23T10:01:28.314Z,0.50
2019-01-23T10:02:29.247Z,0.41
2019-01-23T10:03:30.735Z,0.38
2019-01-23T10:04:31.724Z,0.47
2019-01-23T10:05:32.759Z,0.56
2019-01-23T10:06:34.071Z,0.43
2019-01-23T10:07:34.985Z,0.45
2019-01-23T10:08:36.460Z,0.37
2019-01-23T10:09:37.624Z,0.43
2019-01-23T10:10:38.577Z,0.45
2019-01-23T10:11:39.825Z,0.50
2019-01-23T10:12:41.651Z,0.45
2019-01-23T10:13:42.675Z,0.51
2019-01-23T10:14:43.422Z,0.64
2019-01-23T10:15:44.130Z,0.60
2019-01-23T10:16:45.309Z,0.73
2019-01-23T10:17:46.757Z,0.52
2019-01-23T10:18:47.572Z,0.66
2019-01-23T10:19:49.046Z,0.70
2019-01-23T10:20:50.939Z,0.67
2019-01-23T10:21:52.422Z,0.70
2019-01-23T10:22:54.065Z,0.57
2019-01-23T10:23:55.313Z,0.66
2019-01-23T10:24:57.049Z,0.66
2019-01-23T10:25:58.611Z,0.69
2019-01-23T10:26:59.859Z,0.75
2019-01-23T10:28:01.585Z,0.73
2019-01-23T10:29:02.596Z,0.72
2019-01-23T10:30:03.428Z,0.80
2019-01-23T10:31:06.714Z,0.82
2019-01-23T10:32:05.510Z,0.78
2019-01-23T10:33:06.548Z,0.91
2019-01-23T10:34:07.359Z,0.90
2019-01-23T10:35:08.168Z,1.02
2019-01-23T10:36:08.717Z,1.08
2019-01-23T10:37:09.504Z,1.10
2019-01-23T10:38:10.251Z,1.09
2019-01-23T10:39:10.857Z,1.09
2019-01-23T10:40:11.458Z,1.13
2019-01-23T10:41:12.062Z,1.14
2019-01-23T10:42:12.703Z,1.27
2019-01-23T10:43:13.483Z,1.24
2019-01-23T10:44:14.197Z,1.21
2019-01-23T10:45:14.734Z,1.24
2019-01-23T10:46:15.339Z,1.27
2019-01-23T10:47:15.943Z,1.31
2019-01-23T10:48:16.551Z,1.32
2019-01-23T10:49:17.153Z,1.39
2019-01-23T10:50:17.758Z,1.31
2019-01-23T10:51:18.362Z,1.36
2019-01-23T10:52:19.136Z,1.41
2019-01-23T10:53:19.822Z,1.48
2019-01-23T10:54:20.601Z,1.41
2019-01-23T10:55:21.235Z,1.35
2019-01-23T10:56:21.840Z,1.35
2019-01-23T10:57:22.640Z,1.36
2019-01-23T10:58:23.578Z,1.39
2019-01-23T10:59:24.251Z,1.45
2019-01-23T11:00:24.990Z,1.66
2019-01-23T11:01:26.090Z,1.74
2019-01-23T11:02:26.664Z,1.70
2019-01-23T11:03:27.615Z,1.71
2019-01-23T11:04:28.611Z,1.54
2019-01-23T11:05:29.149Z,1.50
2019-01-23T11:06:30.066Z,1.31
2019-01-23T11:07:30.959Z,1.35
2019-01-23T11:08:31.835Z,1.41
2019-01-23T11:09:32.606Z,1.50
2019-01-23T11:10:33.234Z,1.50
2019-01-23T11:11:34.131Z,1.54
2019-01-23T11:12:35.180Z,1.50
2019-01-23T11:13:36.121Z,1.56
2019-01-23T11:14:36.909Z,1.54
2019-01-23T11:15:37.825Z,1.34
2019-01-23T11:16:38.924Z,1.36
2019-01-23T11:17:39.979Z,1.35
2019-01-23T11:18:40.780Z,1.36
2019-01-23T11:19:41.705Z,1.31
2019-01-23T11:20:42.683Z,1.32
2019-01-23T11:21:43.707Z,1.38
2019-01-23T11:22:44.527Z,1.27
2019-01-23T11:23:45.463Z,1.14
2019-01-23T11:24:46.249Z,1.08
2019-01-23T11:25:47.192Z,1.03
2019-01-23T11:26:48.006Z,1.14
2019-01-23T11:27:48.596Z,0.98
2019-01-23T11:28:49.194Z,0.95
2019-01-23T11:29:49.791Z,1.14
2019-01-23T11:30:50.550Z,1.20
2019-01-23T11:31:51.083Z,1.20
2019-01-23T11:32:51.756Z,1.24
2019-01-23T11:33:52.403Z,1.26
2019-01-23T11:34:53.003Z,1.27
2019-01-23T11:35:53.600Z,1.28
2019-01-23T11:36:54.196Z,1.28
2019-01-23T11:37:54.796Z,1.38
2019-01-23T11:38:55.395Z,1.36
2019-01-23T11:39:55.988Z,1.34
2019-01-23T11:40:56.584Z,1.34
2019-01-23T11:41:57.186Z,1.32
2019-01-23T11:42:57.784Z,1.38
2019-01-23T11:43:58.382Z,1.50
2019-01-23T11:44:58.982Z,1.46
2019-01-23T11:45:59.671Z,1.41
2019-01-23T11:47:00.281Z,1.38
2019-01-23T11:48:00.867Z,1.34
2019-01-23T11:49:01.510Z,1.27
2019-01-23T11:51:18.186Z,1.14
2019-01-23T11:52:18.778Z,1.21
2019-01-23T11:53:19.374Z,1.09
2019-01-23T11:54:19.962Z,1.05
2019-01-23T11:55:20.555Z,1.05
2019-01-23T11:56:21.212Z,1.05
2019-01-23T11:57:21.812Z,1.05
2019-01-23T11:58:22.382Z,1.10
2019-01-23T11:59:22.982Z,1.08
2019-01-23T12:00:23.578Z,1.20
2019-01-23T12:01:27.595Z,1.17
2019-01-23T12:02:30.741Z,1.24
2019-01-23T12:03:25.415Z,1.20
2019-01-23T12:04:26.012Z,1.26
2019-01-23T12:05:26.605Z,1.21
2019-01-23T12:06:27.194Z,1.17
2019-01-23T12:07:27.796Z,1.16
2019-01-23T12:08:28.397Z,1.21
2019-01-23T12:09:28.988Z,1.14
2019-01-23T12:10:29.585Z,1.20
2019-01-23T12:11:30.191Z,1.18
2019-01-23T12:12:30.791Z,1.23
2019-01-23T12:13:31.383Z,1.36
2019-01-23T12:14:31.991Z,1.39
2019-01-23T12:15:32.583Z,1.36
2019-01-23T12:16:33.196Z,1.38
2019-01-23T12:17:34.024Z,1.36
2019-01-23T12:18:34.651Z,1.36
2019-01-23T12:19:35.217Z,1.16
2019-01-23T12:20:35.811Z,1.14
2019-01-23T12:21:36.409Z,1.20
2019-01-23T12:22:37.001Z,1.17
2019-01-23T12:23:37.598Z,1.20
2019-01-23T12:24:38.199Z,1.24
2019-01-23T12:25:38.802Z,1.23
2019-01-23T12:26:39.397Z,1.31
2019-01-23T12:27:39.989Z,1.36
2019-01-23T12:28:40.584Z,1.32
2019-01-23T12:29:41.182Z,1.35
2019-01-23T12:30:41.780Z,1.35
2019-01-23T12:31:42.446Z,1.35
2019-01-23T12:32:43.058Z,1.39
2019-01-23T12:33:43.659Z,1.24
2019-01-23T12:34:44.256Z,1.20
2019-01-23T12:35:44.854Z,1.35
2019-01-23T12:36:45.450Z,1.32
2019-01-23T12:37:46.054Z,1.32
2019-01-23T12:38:46.652Z,1.44
2019-01-23T12:39:47.253Z,1.54
2019-01-23T12:40:47.851Z,1.62
2019-01-23T12:41:48.449Z,1.72
2019-01-23T12:42:49.042Z,1.64
2019-01-23T12:43:49.639Z,1.63
2019-01-23T12:44:50.240Z,1.68
2019-01-23T12:45:50.838Z,1.66
2019-01-23T12:46:51.446Z,1.64
2019-01-23T12:47:52.034Z,1.62
2019-01-23T12:48:52.634Z,1.71
2019-01-23T12:49:53.254Z,1.66
2019-01-23T12:50:53.823Z,1.66
2019-01-23T12:51:54.424Z,1.60
2019-01-23T12:52:55.025Z,1.59
2019-01-23T12:53:55.623Z,1.56
2019-01-23T12:54:56.219Z,1.57
2019-01-23T12:55:56.896Z,1.53
2019-01-23T12:56:57.499Z,1.62
2019-01-23T12:57:58.088Z,1.64
2019-01-23T12:58:58.689Z,1.63
2019-01-23T13:00:05.084Z,1.64
2019-01-23T13:00:59.881Z,1.66
2019-01-23T13:02:00.481Z,1.74
2019-01-23T13:03:01.077Z,1.80
2019-01-23T13:04:01.663Z,1.80
2019-01-23T13:05:02.270Z,1.74
2019-01-23T13:06:02.891Z,1.80
2019-01-23T13:07:03.504Z,1.89
2019-01-23T13:08:04.070Z,1.78
2019-01-23T13:09:04.681Z,1.66
2019-01-23T13:10:05.283Z,1.63
2019-01-23T13:11:05.885Z,1.62